Time;durP1;ratioP1;P1;durP2;ratioP2;P2;SDS_P1;SDS_P2;PMS_P1;PMS_P2;Temp;Humidity;BMP_temperature;BMP_pressure;BME280_temperature;BME280_humidity;BME280_pressure;Samples;Min_cycle;Max_cycle;Signal;HPM_P1;HPM_P2
2023/01/27 00:00:51;;;;;;;30.10;17.98;;;4.10;99.90;;;;;;5115624;27;20067;-36
2023/01/27 00:03:17;;;;;;;30.70;17.23;;;4.10;99.90;;;;;;5115288;27;20043;-36
2023/01/27 00:05:45;;;;;;;28.00;16.88;;;4.10;99.90;;;;;;5077927;28;20048;-36
2023/01/27 00:08:10;;;;;;;29.25;18.20;;;4.10;99.90;;;;;;5094927;28;20035;-36
2023/01/27 00:10:37;;;;;;;27.80;16.75;;;4.10;99.90;;;;;;5095020;28;20491;-36
2023/01/27 00:15:47;;;;;;;29.83;17.77;;;4.10;99.90;;;;;;5113469;28;20134;-36
2023/01/27 00:18:13;;;;;;;29.95;18.30;;;4.10;99.90;;;;;;5095416;28;20110;-37
2023/01/27 00:26:14;;;;;;;33.88;20.05;;;4.10;99.90;;;;;;5097185;28;20060;-37
2023/01/27 00:28:40;;;;;;;28.50;19.23;;;4.10;99.90;;;;;;5101597;27;20079;-37
2023/01/27 00:33:55;;;;;;;29.55;20.13;;;4.10;99.90;;;;;;5105257;27;20082;-37
2023/01/27 00:36:21;;;;;;;31.42;20.38;;;4.10;99.90;;;;;;5103402;27;20127;-38
2023/01/27 00:38:47;;;;;;;24.55;16.75;;;4.10;99.90;;;;;;5101775;28;20035;-38
2023/01/27 00:41:19;;;;;;;24.85;17.42;;;4.10;99.90;;;;;;5080814;28;20088;-38
2023/01/27 00:43:46;;;;;;;23.88;16.48;;;4.10;99.90;;;;;;5115362;27;20036;-38
2023/01/27 00:46:13;;;;;;;24.33;17.75;;;4.10;99.90;;;;;;5095211;28;20038;-36
2023/01/27 00:48:39;;;;;;;23.92;16.63;;;4.10;99.90;;;;;;5093301;28;20088;-37
2023/01/27 00:51:04;;;;;;;26.17;17.15;;;4.10;99.90;;;;;;5092885;28;20397;-38
2023/01/27 00:53:30;;;;;;;22.63;15.82;;;4.10;99.90;;;;;;5087861;28;20038;-38
2023/01/27 00:55:57;;;;;;;24.77;16.20;;;4.10;99.90;;;;;;5100028;28;20078;-38
2023/01/27 00:58:24;;;;;;;24.98;15.68;;;4.10;99.90;;;;;;5098996;28;20391;-38
2023/01/27 01:00:52;;;;;;;23.27;14.82;;;4.00;99.90;;;;;;5101190;28;20046;-38
2023/01/27 01:03:18;;;;;;;22.02;14.73;;;4.00;99.90;;;;;;5087697;28;20078;-38
2023/01/27 01:05:44;;;;;;;26.25;15.30;;;4.00;99.90;;;;;;5090489;28;20548;-38
2023/01/27 01:08:09;;;;;;;23.08;14.70;;;4.10;99.90;;;;;;5095944;28;20043;-38
2023/01/27 01:10:37;;;;;;;22.90;14.50;;;4.00;99.90;;;;;;5094437;28;20035;-37
2023/01/27 01:13:04;;;;;;;20.67;15.02;;;4.00;99.90;;;;;;5101286;28;20390;-38
2023/01/27 01:15:29;;;;;;;22.00;15.10;;;4.00;99.90;;;;;;5098226;28;20051;-37
2023/01/27 01:17:55;;;;;;;23.50;15.13;;;4.00;99.90;;;;;;5089103;28;20236;-37
2023/01/27 01:20:22;;;;;;;22.55;14.02;;;4.00;99.90;;;;;;5096251;28;20390;-37
2023/01/27 01:22:48;;;;;;;21.13;13.40;;;4.00;99.90;;;;;;5102409;28;20036;-37
2023/01/27 01:25:14;;;;;;;18.30;12.48;;;4.00;99.90;;;;;;5101134;28;20027;-37
2023/01/27 01:27:44;;;;;;;18.55;12.35;;;4.00;99.90;;;;;;5094051;28;20666;-37
2023/01/27 01:30:10;;;;;;;17.83;12.15;;;4.00;99.90;;;;;;5098869;28;20399;-37
2023/01/27 01:32:36;;;;;;;17.77;12.43;;;4.00;99.90;;;;;;5096955;28;20043;-38
2023/01/27 01:35:02;;;;;;;14.35;10.98;;;4.00;99.90;;;;;;5090744;28;20042;-37
2023/01/27 01:37:28;;;;;;;14.80;11.05;;;4.00;99.90;;;;;;5101441;28;20035;-37
2023/01/27 01:39:54;;;;;;;13.57;9.75;;;4.00;99.90;;;;;;5103187;28;20107;-38
2023/01/27 01:42:19;;;;;;;13.70;10.05;;;4.00;99.90;;;;;;5099213;28;20110;-38
2023/01/27 01:44:45;;;;;;;13.80;9.27;;;4.00;99.90;;;;;;5098710;28;20038;-38
2023/01/27 01:47:16;;;;;;;13.60;9.10;;;4.00;99.90;;;;;;5101275;28;20032;-37
2023/01/27 01:49:45;;;;;;;12.23;8.95;;;4.00;99.90;;;;;;5100794;28;20388;-38
2023/01/27 01:52:20;;;;;;;11.90;7.90;;;4.10;99.90;;;;;;5095389;28;20074;-38
2023/01/27 01:54:52;;;;;;;17.27;8.13;;;4.10;99.90;;;;;;5103333;28;20068;-37
2023/01/27 01:57:26;;;;;;;10.50;7.13;;;4.10;99.90;;;;;;5092842;28;20036;-38
2023/01/27 02:00:05;;;;;;;10.02;7.20;;;4.10;99.90;;;;;;5099264;28;20071;-38
2023/01/27 02:02:32;;;;;;;11.85;7.72;;;4.10;99.90;;;;;;5106918;27;20042;-38
2023/01/27 02:05:15;;;;;;;11.07;7.88;;;4.10;99.90;;;;;;5103080;27;20122;-38
2023/01/27 02:07:52;;;;;;;9.38;6.95;;;4.10;99.90;;;;;;5097715;27;20064;-38
2023/01/27 02:10:18;;;;;;;10.88;7.38;;;4.10;99.90;;;;;;5107198;28;20445;-38
2023/01/27 02:12:43;;;;;;;8.82;6.07;;;4.10;99.90;;;;;;5103038;27;20067;-38
2023/01/27 02:15:10;;;;;;;10.77;6.53;;;4.10;99.90;;;;;;5110743;28;20032;-38
2023/01/27 02:17:37;;;;;;;7.55;5.50;;;4.10;99.90;;;;;;5102117;28;20031;-38
2023/01/27 02:20:02;;;;;;;9.02;6.20;;;4.00;99.90;;;;;;5092568;27;20515;-38
2023/01/27 02:23:02;;;;;;;9.80;5.57;;;4.10;99.90;;;;;;5095818;28;20036;-38
2023/01/27 02:25:34;;;;;;;7.10;5.43;;;4.10;99.90;;;;;;5097744;27;20110;-38
2023/01/27 02:28:05;;;;;;;7.80;5.90;;;4.10;99.90;;;;;;5103083;27;20043;-38
2023/01/27 02:30:31;;;;;;;9.30;5.30;;;4.10;99.90;;;;;;5102446;28;20024;-38
2023/01/27 02:32:57;;;;;;;7.22;5.38;;;4.10;99.90;;;;;;5113049;27;20506;-38
2023/01/27 02:35:45;;;;;;;8.23;5.85;;;4.10;99.90;;;;;;5079227;28;20040;-37
2023/01/27 02:38:13;;;;;;;7.32;5.60;;;4.10;99.90;;;;;;5096909;28;20035;-37
2023/01/27 02:40:39;;;;;;;8.70;5.90;;;4.10;99.90;;;;;;5096748;28;20045;-37
2023/01/27 02:43:05;;;;;;;7.35;5.18;;;4.10;99.90;;;;;;5096608;28;20111;-37
2023/01/27 02:45:31;;;;;;;10.10;5.88;;;4.10;99.90;;;;;;5086039;28;20126;-38
2023/01/27 02:47:57;;;;;;;7.53;5.28;;;4.10;99.90;;;;;;5091350;28;20123;-38
2023/01/27 02:50:22;;;;;;;6.35;4.93;;;4.10;99.90;;;;;;5091881;28;20416;-37
2023/01/27 02:52:48;;;;;;;8.13;5.43;;;4.10;99.90;;;;;;5113104;27;20452;-36
2023/01/27 02:55:14;;;;;;;9.07;5.20;;;4.10;99.90;;;;;;5116975;27;20527;-36
2023/01/27 02:57:39;;;;;;;7.90;5.03;;;4.10;99.90;;;;;;5113149;28;20032;-36
2023/01/27 03:00:08;;;;;;;6.60;4.68;;;4.10;99.90;;;;;;5096179;28;20279;-36
2023/01/27 03:02:34;;;;;;;7.25;5.03;;;4.10;99.90;;;;;;5081372;28;20040;-39
2023/01/27 03:05:00;;;;;;;7.43;5.03;;;4.10;99.90;;;;;;5089955;28;20502;-38
2023/01/27 03:07:25;;;;;;;5.72;4.80;;;4.10;99.90;;;;;;5095633;28;20027;-37
2023/01/27 03:09:51;;;;;;;5.65;4.25;;;4.10;99.90;;;;;;5095612;28;20042;-37
2023/01/27 03:12:19;;;;;;;6.20;4.80;;;4.10;99.90;;;;;;5089841;28;20043;-36
2023/01/27 03:20:21;;;;;;;6.13;4.22;;;4.10;99.90;;;;;;5134376;27;20046;-37
2023/01/27 03:22:47;;;;;;;5.18;3.67;;;4.20;99.90;;;;;;5115461;27;20449;-36
2023/01/27 03:25:13;;;;;;;4.97;3.92;;;4.10;99.90;;;;;;5115751;27;20205;-36
2023/01/27 03:27:39;;;;;;;4.50;3.95;;;4.10;99.90;;;;;;5095584;28;20035;-36
2023/01/27 03:30:06;;;;;;;5.70;3.97;;;4.20;99.90;;;;;;5092346;27;20062;-38
2023/01/27 03:32:32;;;;;;;6.18;3.95;;;4.20;99.90;;;;;;5102919;22;20036;-38
2023/01/27 03:35:00;;;;;;;4.68;3.47;;;4.20;99.90;;;;;;5075702;28;20497;-38
2023/01/27 03:48:33;;;;;;;4.72;3.38;;;4.10;99.90;;;;;;5066854;28;20063;-38
2023/01/27 03:50:59;;;;;;;3.65;3.30;;;4.10;99.90;;;;;;5050645;28;20044;-38
2023/01/27 03:53:25;;;;;;;4.25;3.35;;;4.10;99.90;;;;;;5077609;28;20032;-38
2023/01/27 03:55:51;;;;;;;3.67;3.30;;;4.10;99.90;;;;;;5054029;28;20523;-38
2023/01/27 03:58:24;;;;;;;3.92;3.17;;;4.10;99.90;;;;;;5050476;28;20075;-38
2023/01/27 04:00:53;;;;;;;4.07;3.22;;;4.10;99.90;;;;;;5052430;28;20033;-38
2023/01/27 04:08:52;;;;;;;3.85;2.90;;;4.10;99.90;;;;;;5062952;28;20466;-38
2023/01/27 04:14:04;;;;;;;4.65;3.15;;;4.10;99.90;;;;;;5063417;28;20044;-38
2023/01/27 04:16:30;;;;;;;3.45;3.15;;;4.10;99.90;;;;;;5045751;28;20047;-38
2023/01/27 04:18:56;;;;;;;3.95;3.47;;;4.10;99.90;;;;;;5050975;28;20043;-38
2023/01/27 04:21:24;;;;;;;4.95;3.28;;;4.10;99.90;;;;;;5047234;28;20025;-38
2023/01/27 04:23:51;;;;;;;4.05;3.65;;;4.10;99.90;;;;;;5048808;28;20411;-38
2023/01/27 04:26:18;;;;;;;4.10;3.63;;;4.10;99.90;;;;;;5047852;28;20036;-39
2023/01/27 04:28:44;;;;;;;5.65;3.40;;;4.10;99.90;;;;;;5041778;28;20409;-38
2023/01/27 04:31:09;;;;;;;3.63;3.33;;;4.10;99.90;;;;;;5048460;28;20036;-38
2023/01/27 04:33:35;;;;;;;3.80;3.50;;;4.10;99.90;;;;;;5045523;28;20117;-37
2023/01/27 04:36:01;;;;;;;3.55;3.25;;;4.10;99.90;;;;;;5054147;28;20037;-37
2023/01/27 04:38:27;;;;;;;4.15;3.28;;;4.10;99.90;;;;;;5057077;28;20036;-37
2023/01/27 04:40:52;;;;;;;3.78;3.40;;;4.10;99.90;;;;;;5072519;28;20032;-37
2023/01/27 04:43:18;;;;;;;3.80;3.50;;;4.10;99.90;;;;;;5054012;28;20044;-37
2023/01/27 04:45:44;;;;;;;4.15;3.75;;;4.10;99.90;;;;;;5053777;28;20424;-37
2023/01/27 04:48:10;;;;;;;4.05;3.70;;;4.10;99.90;;;;;;5053455;28;20048;-37
2023/01/27 04:50:35;;;;;;;3.90;3.60;;;4.10;99.90;;;;;;5053518;28;20040;-36
2023/01/27 04:53:01;;;;;;;5.40;3.60;;;4.10;99.90;;;;;;5053254;28;20041;-38
2023/01/27 04:55:27;;;;;;;3.63;3.30;;;4.00;99.90;;;;;;5050368;28;20043;-39
2023/01/27 04:57:53;;;;;;;3.90;3.50;;;4.00;99.90;;;;;;5061048;28;20024;-39
2023/01/27 05:00:19;;;;;;;4.43;3.40;;;4.00;99.90;;;;;;5052619;28;20028;-38
2023/01/27 05:02:45;;;;;;;4.32;3.28;;;4.00;99.90;;;;;;5065545;28;20460;-38
2023/01/27 05:05:11;;;;;;;3.47;3.17;;;4.00;99.90;;;;;;5046074;28;20060;-38
2023/01/27 05:07:38;;;;;;;4.20;3.30;;;3.90;99.90;;;;;;5052817;28;20037;-38
2023/01/27 05:10:05;;;;;;;4.03;3.15;;;3.90;99.90;;;;;;5068641;28;20094;-37
2023/01/27 05:12:32;;;;;;;3.10;2.72;;;3.90;99.90;;;;;;5052972;28;20107;-40
2023/01/27 05:14:58;;;;;;;3.20;2.90;;;3.90;99.90;;;;;;5065207;28;20067;-38
2023/01/27 05:17:24;;;;;;;3.15;2.65;;;3.90;99.90;;;;;;5070908;28;20040;-38
2023/01/27 05:19:49;;;;;;;2.78;2.58;;;3.90;99.90;;;;;;5051848;28;20029;-38
2023/01/27 05:22:15;;;;;;;2.85;2.17;;;3.90;99.90;;;;;;5046076;28;20431;-38
2023/01/27 05:24:41;;;;;;;2.75;2.22;;;3.90;99.90;;;;;;5047381;28;20033;-38
2023/01/27 05:27:06;;;;;;;2.40;2.17;;;3.80;99.90;;;;;;5068973;28;20041;-38
2023/01/27 05:29:32;;;;;;;2.50;2.30;;;3.90;99.90;;;;;;5042218;28;20120;-38
2023/01/27 05:31:58;;;;;;;4.32;2.13;;;3.90;99.90;;;;;;5051886;28;20044;-38
2023/01/27 05:34:24;;;;;;;4.00;2.17;;;3.90;99.90;;;;;;5050083;28;20044;-38
2023/01/27 05:36:50;;;;;;;2.60;2.30;;;3.80;99.90;;;;;;5054612;28;20094;-38
2023/01/27 05:39:16;;;;;;;2.70;2.42;;;3.80;99.90;;;;;;5053358;28;20044;-38
2023/01/27 05:41:42;;;;;;;3.25;2.10;;;3.80;99.90;;;;;;5046121;28;20041;-38
2023/01/27 05:44:10;;;;;;;2.90;2.30;;;3.80;99.90;;;;;;5055040;28;20134;-38
2023/01/27 05:46:38;;;;;;;4.45;2.35;;;3.80;99.90;;;;;;5055444;28;20055;-38
2023/01/27 05:49:04;;;;;;;3.30;2.28;;;3.90;99.90;;;;;;5048828;28;20036;-38
2023/01/27 05:51:32;;;;;;;3.45;2.47;;;3.80;99.90;;;;;;5045183;28;20035;-38
2023/01/27 05:53:58;;;;;;;3.60;2.58;;;3.90;99.90;;;;;;5055574;28;20042;-38
2023/01/27 05:56:25;;;;;;;3.45;2.30;;;3.80;99.90;;;;;;5049175;28;20473;-38
2023/01/27 05:58:53;;;;;;;2.38;2.17;;;3.90;99.90;;;;;;5053273;28;20448;-38
2023/01/27 06:01:22;;;;;;;2.85;2.55;;;3.90;99.90;;;;;;5050632;28;20503;-38
2023/01/27 06:03:48;;;;;;;2.88;2.55;;;3.80;99.90;;;;;;5044286;28;20505;-38
2023/01/27 06:06:17;;;;;;;4.90;2.60;;;3.80;99.90;;;;;;5051329;28;20052;-38
2023/01/27 06:08:44;;;;;;;3.35;2.92;;;3.80;99.90;;;;;;5043174;28;20040;-38
2023/01/27 06:11:10;;;;;;;4.85;2.65;;;3.80;99.90;;;;;;5056038;28;20045;-39
2023/01/27 06:13:37;;;;;;;5.85;3.05;;;3.80;99.90;;;;;;5043138;28;20064;-38
2023/01/27 06:16:06;;;;;;;3.28;2.85;;;3.80;99.90;;;;;;5052560;28;20032;-38
2023/01/27 06:18:32;;;;;;;5.00;3.42;;;3.80;99.90;;;;;;5051933;28;20041;-38
2023/01/27 06:21:00;;;;;;;6.10;3.95;;;3.80;99.90;;;;;;5041719;28;20094;-39
2023/01/27 06:23:26;;;;;;;3.35;2.78;;;3.80;99.90;;;;;;5061019;28;20062;-38
2023/01/27 06:25:53;;;;;;;3.85;2.78;;;3.80;99.90;;;;;;5041807;28;20040;-38
2023/01/27 06:28:19;;;;;;;3.95;2.65;;;3.80;99.90;;;;;;5050307;28;20091;-38
2023/01/27 06:30:44;;;;;;;4.28;3.15;;;3.80;99.90;;;;;;5051525;28;20500;-38
2023/01/27 06:33:11;;;;;;;3.40;3.10;;;3.80;99.90;;;;;;5052957;28;20060;-39
2023/01/27 06:35:38;;;;;;;3.95;2.83;;;3.80;99.90;;;;;;5055944;28;20047;-37
2023/01/27 06:38:07;;;;;;;4.13;2.85;;;3.80;99.90;;;;;;5054565;28;20036;-37
2023/01/27 06:40:34;;;;;;;3.28;2.92;;;3.80;99.90;;;;;;5064300;28;20037;-35
2023/01/27 06:43:00;;;;;;;4.25;3.40;;;3.80;99.90;;;;;;5056066;28;20396;-35
2023/01/27 06:45:26;;;;;;;5.57;3.45;;;3.70;99.90;;;;;;5041696;28;20554;-36
2023/01/27 06:48:00;;;;;;;4.05;3.10;;;3.70;99.90;;;;;;5068262;28;20071;-37
2023/01/27 06:50:27;;;;;;;4.13;3.20;;;3.70;99.90;;;;;;5051982;28;20032;-37
2023/01/27 06:53:00;;;;;;;4.57;3.20;;;3.70;99.90;;;;;;5047123;28;20131;-37
2023/01/27 06:55:26;;;;;;;4.22;2.92;;;3.70;99.90;;;;;;5046933;28;20043;-37
2023/01/27 06:57:52;;;;;;;7.07;2.97;;;3.70;99.90;;;;;;5049483;28;20045;-37
2023/01/27 07:00:18;;;;;;;3.47;2.85;;;3.70;99.90;;;;;;5050135;28;20032;-37
2023/01/27 07:02:44;;;;;;;3.58;3.28;;;3.60;99.90;;;;;;5034789;28;20048;-37
2023/01/27 07:05:10;;;;;;;5.70;3.60;;;3.60;99.90;;;;;;5049173;28;20520;-37
2023/01/27 07:07:37;;;;;;;3.58;3.17;;;3.60;99.90;;;;;;5046553;28;20094;-37
2023/01/27 07:10:03;;;;;;;7.13;3.92;;;3.60;99.90;;;;;;5049449;28;20416;-37
2023/01/27 07:12:29;;;;;;;7.05;3.72;;;3.60;99.90;;;;;;5049884;28;20117;-38
2023/01/27 07:14:55;;;;;;;4.63;3.58;;;3.60;99.90;;;;;;5046217;28;20312;-36
2023/01/27 07:17:20;;;;;;;6.10;3.50;;;3.60;99.90;;;;;;5045865;28;20032;-37
2023/01/27 07:19:46;;;;;;;4.22;3.53;;;3.60;99.90;;;;;;5047674;28;20032;-37
2023/01/27 07:22:12;;;;;;;7.28;4.60;;;3.60;99.90;;;;;;5044843;28;20373;-37
2023/01/27 07:24:38;;;;;;;4.97;3.63;;;3.60;99.90;;;;;;5044199;28;20123;-36
2023/01/27 07:27:04;;;;;;;6.53;3.90;;;3.60;99.90;;;;;;5059760;28;20060;-37
2023/01/27 07:29:29;;;;;;;7.38;4.10;;;3.50;99.90;;;;;;5056814;28;20043;-37
2023/01/27 07:31:55;;;;;;;4.85;3.60;;;3.60;99.90;;;;;;5075015;28;20040;-37
2023/01/27 07:34:21;;;;;;;5.32;3.88;;;3.50;99.90;;;;;;5058181;28;20037;-37
2023/01/27 07:36:47;;;;;;;6.55;4.30;;;3.50;99.90;;;;;;5055230;28;20401;-37
2023/01/27 07:39:12;;;;;;;5.97;4.07;;;3.50;99.90;;;;;;5054693;28;20037;-38
2023/01/27 07:41:38;;;;;;;7.15;4.65;;;3.50;99.90;;;;;;5028596;28;20513;-37
2023/01/27 07:44:04;;;;;;;6.05;4.18;;;3.50;99.90;;;;;;5047522;28;20142;-38
2023/01/27 07:46:30;;;;;;;5.70;4.43;;;3.50;99.90;;;;;;5045439;28;20046;-37
2023/01/27 07:48:56;;;;;;;6.93;4.50;;;3.50;99.90;;;;;;5034340;28;20061;-38
2023/01/27 07:51:22;;;;;;;6.07;4.47;;;3.60;99.90;;;;;;5048611;28;20047;-38
2023/01/27 07:53:47;;;;;;;5.65;4.55;;;3.60;99.90;;;;;;5049768;28;20119;-38
2023/01/27 07:56:13;;;;;;;8.02;5.43;;;3.60;99.90;;;;;;5049366;28;20140;-38
2023/01/27 07:58:41;;;;;;;7.93;5.03;;;3.60;99.90;;;;;;5062983;28;20501;-38
2023/01/27 08:01:08;;;;;;;7.13;4.60;;;3.60;99.90;;;;;;5036623;28;20036;-38
2023/01/27 08:03:34;;;;;;;6.00;5.25;;;3.60;99.90;;;;;;5045451;28;20489;-37
2023/01/27 08:06:05;;;;;;;6.82;4.47;;;3.60;99.90;;;;;;5045592;28;20078;-38
2023/01/27 08:08:31;;;;;;;8.35;5.22;;;3.70;99.90;;;;;;5043628;28;20037;-38
2023/01/27 08:11:06;;;;;;;7.13;5.32;;;3.60;99.90;;;;;;5050143;28;20382;-38
2023/01/27 08:13:32;;;;;;;8.85;6.13;;;3.70;99.90;;;;;;5054185;28;20519;-38
2023/01/27 08:15:59;;;;;;;6.43;5.43;;;3.70;99.90;;;;;;5054042;28;20539;-38
2023/01/27 08:18:27;;;;;;;7.20;5.32;;;3.80;99.90;;;;;;5054702;28;20036;-37
2023/01/27 08:20:54;;;;;;;7.93;5.15;;;3.80;99.90;;;;;;5074141;28;20064;-38
2023/01/27 08:23:21;;;;;;;8.18;5.15;;;3.90;99.90;;;;;;5074025;28;20036;-37
2023/01/27 08:25:51;;;;;;;7.32;5.60;;;4.00;99.90;;;;;;5051938;28;20033;-38
2023/01/27 08:28:18;;;;;;;6.95;5.13;;;4.00;99.90;;;;;;5040977;28;20120;-38
2023/01/27 08:30:45;;;;;;;8.40;5.63;;;4.10;99.90;;;;;;5038332;28;20032;-38
2023/01/27 08:33:12;;;;;;;5.88;4.88;;;4.20;99.90;;;;;;5039845;28;20040;-38
2023/01/27 08:35:41;;;;;;;7.70;5.65;;;4.20;99.90;;;;;;5045177;28;20045;-37
2023/01/27 08:38:07;;;;;;;6.78;5.07;;;4.20;99.90;;;;;;5053692;28;20040;-38
2023/01/27 08:40:33;;;;;;;7.80;5.53;;;4.30;99.90;;;;;;5058251;28;20037;-38
2023/01/27 08:43:00;;;;;;;8.65;6.05;;;4.40;99.90;;;;;;5051534;28;20037;-38
2023/01/27 08:45:27;;;;;;;7.75;5.88;;;4.40;99.90;;;;;;5053031;28;20111;-37
2023/01/27 08:47:53;;;;;;;9.20;5.63;;;4.50;99.90;;;;;;5052366;28;20044;-38
2023/01/27 08:50:19;;;;;;;7.30;5.30;;;4.50;99.90;;;;;;5063954;28;20094;-38
2023/01/27 08:52:44;;;;;;;6.70;5.10;;;4.50;99.90;;;;;;5056703;28;20119;-38
2023/01/27 08:55:10;;;;;;;8.57;5.18;;;4.50;99.90;;;;;;5044280;28;20067;-38
2023/01/27 08:57:36;;;;;;;6.05;4.75;;;4.50;99.90;;;;;;5045140;28;20039;-38
2023/01/27 09:00:05;;;;;;;6.10;5.15;;;4.50;99.90;;;;;;5059612;28;20101;-38
2023/01/27 09:02:31;;;;;;;6.05;5.45;;;4.50;99.90;;;;;;5046945;28;20095;-37
2023/01/27 09:04:57;;;;;;;8.77;5.28;;;4.50;99.90;;;;;;5049012;28;20049;-38
2023/01/27 09:07:23;;;;;;;8.07;5.68;;;4.40;99.90;;;;;;5035165;28;20427;-38
2023/01/27 09:09:49;;;;;;;8.32;5.55;;;4.50;99.90;;;;;;5039180;28;20128;-38
2023/01/27 09:12:16;;;;;;;7.80;5.40;;;4.40;99.90;;;;;;5057403;28;20082;-38
2023/01/27 09:14:41;;;;;;;6.03;5.30;;;4.40;99.90;;;;;;5059099;28;20128;-37
2023/01/27 09:17:07;;;;;;;6.25;5.43;;;4.40;99.90;;;;;;5047826;28;20116;-38
2023/01/27 09:19:33;;;;;;;5.82;5.22;;;4.40;99.90;;;;;;5059270;28;20037;-37
2023/01/27 09:21:58;;;;;;;7.15;5.55;;;4.40;99.90;;;;;;5076493;28;20032;-38
2023/01/27 09:24:24;;;;;;;8.32;5.90;;;4.50;99.90;;;;;;5079089;28;20048;-38
2023/01/27 09:26:50;;;;;;;11.85;5.70;;;4.50;99.90;;;;;;5073344;28;20481;-38
2023/01/27 09:29:16;;;;;;;8.48;6.22;;;4.50;99.90;;;;;;5054690;28;20074;-38
2023/01/27 09:31:42;;;;;;;10.10;6.35;;;4.60;99.90;;;;;;5052639;28;20036;-38
2023/01/27 09:34:08;;;;;;;7.32;5.53;;;4.60;99.90;;;;;;5044977;28;20043;-38
2023/01/27 09:36:42;;;;;;;9.18;5.53;;;4.60;99.90;;;;;;5069274;28;20112;-38
2023/01/27 09:39:09;;;;;;;7.28;5.93;;;4.60;99.90;;;;;;5057030;28;20040;-38
2023/01/27 09:41:44;;;;;;;8.05;5.75;;;4.70;99.90;;;;;;5038628;28;20037;-38
2023/01/27 09:44:17;;;;;;;9.35;5.47;;;4.70;99.90;;;;;;5027134;28;20128;-38
2023/01/27 09:47:24;;;;;;;6.32;5.03;;;4.70;99.90;;;;;;5058822;28;20036;-38
2023/01/27 09:50:18;;;;;;;5.70;5.10;;;4.60;99.90;;;;;;5035629;28;20055;-38
2023/01/27 09:53:13;;;;;;;8.13;5.60;;;4.60;99.90;;;;;;5071459;28;20036;-37
2023/01/27 09:55:43;;;;;;;;;;;4.50;99.90;;;;;;5087909;28;20119;-38
2023/01/27 09:58:51;;;;;;;6.72;5.15;;;4.50;99.90;;;;;;5060436;28;19916;-38
2023/01/27 10:01:37;;;;;;;7.63;5.15;;;4.50;99.90;;;;;;5042212;28;20032;-38
2023/01/27 10:04:44;;;;;;;6.97;5.32;;;4.50;99.90;;;;;;5048895;28;20072;-38
2023/01/27 10:07:52;;;;;;;6.00;5.07;;;4.40;99.90;;;;;;5058529;28;20047;-38
2023/01/27 10:10:47;;;;;;;7.10;5.30;;;4.40;99.90;;;;;;5040397;28;20139;-37
2023/01/27 10:13:38;;;;;;;7.97;5.63;;;4.40;99.90;;;;;;5052029;28;20366;-38
2023/01/27 10:16:42;;;;;;;8.48;6.25;;;4.40;99.90;;;;;;5057974;28;20049;-38
2023/01/27 10:19:26;;;;;;;6.28;5.13;;;4.40;99.90;;;;;;5044187;28;20489;-38
2023/01/27 10:22:11;;;;;;;6.07;4.63;;;4.40;99.90;;;;;;5047856;28;20039;-38
2023/01/27 10:25:06;;;;;;;5.90;4.40;;;4.40;99.90;;;;;;5056790;28;20170;-37
2023/01/27 10:27:36;;;;;;;6.43;4.97;;;4.40;99.90;;;;;;5050109;28;20036;-39
2023/01/27 10:30:20;;;;;;;6.50;4.40;;;4.40;99.90;;;;;;5050673;28;20094;-40
2023/01/27 10:32:59;;;;;;;4.97;4.18;;;4.50;99.90;;;;;;5046427;28;20039;-38
2023/01/27 10:35:48;;;;;;;5.35;4.22;;;4.50;99.90;;;;;;5041721;28;20098;-38
2023/01/27 10:38:34;;;;;;;5.75;4.50;;;4.40;99.90;;;;;;5040053;28;20040;-38
2023/01/27 10:42:05;;;;;;;4.78;3.92;;;4.40;99.90;;;;;;5043026;28;20033;-36
2023/01/27 10:49:12;;;;;;;4.70;4.15;;;4.40;99.90;;;;;;5066170;28;20068;-36
2023/01/27 10:52:32;;;;;;;5.10;3.90;;;4.40;99.90;;;;;;5040306;28;20059;-36
2023/01/27 10:55:27;;;;;;;4.07;3.67;;;4.40;99.90;;;;;;5057269;28;20485;-36
2023/01/27 10:57:58;;;;;;;3.75;3.22;;;4.40;99.90;;;;;;5047479;28;20043;-36
2023/01/27 11:00:44;;;;;;;4.35;3.47;;;4.50;99.90;;;;;;5044108;28;20456;-36
2023/01/27 11:03:23;;;;;;;8.40;4.07;;;4.50;99.90;;;;;;5057073;28;20095;-36
2023/01/27 11:05:56;;;;;;;5.75;3.88;;;4.50;99.90;;;;;;5048256;28;20111;-36
2023/01/27 11:08:26;;;;;;;6.88;4.20;;;4.50;99.90;;;;;;5049052;28;20094;-37
2023/01/27 11:13:40;;;;;;;4.80;3.80;;;4.60;99.90;;;;;;5058853;28;20444;-35
2023/01/27 11:16:15;;;;;;;6.65;4.18;;;4.60;99.90;;;;;;5044168;28;20048;-35
2023/01/27 11:18:45;;;;;;;4.90;4.10;;;4.60;99.90;;;;;;5043446;28;20024;-36
2023/01/27 11:21:20;;;;;;;4.78;3.67;;;4.70;99.90;;;;;;5044662;28;20025;-36
2023/01/27 11:23:52;;;;;;;4.85;4.15;;;4.70;99.90;;;;;;5043185;28;20033;-36
2023/01/27 11:26:29;;;;;;;5.72;4.13;;;4.70;99.90;;;;;;5046540;28;20060;-36
2023/01/27 11:29:16;;;;;;;5.57;4.10;;;4.70;99.90;;;;;;5042335;28;20032;-37
2023/01/27 11:32:09;;;;;;;6.18;4.35;;;4.70;99.90;;;;;;5043957;28;20040;-37
2023/01/27 11:34:35;;;;;;;5.97;4.53;;;4.80;99.90;;;;;;5041275;28;20115;-38
2023/01/27 11:37:19;;;;;;;6.72;4.32;;;4.80;99.90;;;;;;5046683;28;20449;-38
2023/01/27 11:39:45;;;;;;;5.55;3.83;;;4.90;99.90;;;;;;5041275;28;20077;-37
2023/01/27 11:42:11;;;;;;;5.82;4.13;;;5.00;99.90;;;;;;5045987;28;20138;-37
2023/01/27 11:44:39;;;;;;;4.93;4.00;;;5.00;99.90;;;;;;5026548;28;20093;-37
2023/01/27 11:47:07;;;;;;;5.50;3.90;;;5.10;99.90;;;;;;5044884;28;20039;-37
2023/01/27 11:49:45;;;;;;;6.47;4.05;;;5.10;99.90;;;;;;5037935;28;20090;-37
2023/01/27 11:52:14;;;;;;;4.07;3.70;;;5.20;99.90;;;;;;5046785;28;20041;-37
2023/01/27 11:54:47;;;;;;;4.68;3.90;;;5.20;99.90;;;;;;5053194;28;20037;-39
2023/01/27 11:57:22;;;;;;;4.20;3.80;;;5.30;99.90;;;;;;5044220;28;20093;-39
2023/01/27 11:59:57;;;;;;;4.18;3.45;;;5.30;99.90;;;;;;5048838;28;20047;-38
2023/01/27 12:02:46;;;;;;;4.22;3.20;;;5.30;99.90;;;;;;5062368;28;20025;-39
2023/01/27 12:05:20;;;;;;;4.00;2.92;;;5.40;99.90;;;;;;5047369;28;20041;-38
2023/01/27 12:07:56;;;;;;;5.03;3.47;;;5.30;99.90;;;;;;5052130;28;20032;-38
2023/01/27 12:10:28;;;;;;;4.50;3.83;;;5.30;99.90;;;;;;5042750;28;20040;-38
2023/01/27 12:12:55;;;;;;;3.55;3.10;;;5.30;99.90;;;;;;5048596;28;20032;-37
2023/01/27 12:15:23;;;;;;;4.63;3.33;;;5.30;99.90;;;;;;5046742;28;20033;-38
2023/01/27 12:18:11;;;;;;;3.88;3.45;;;5.20;99.90;;;;;;5039572;28;20036;-38
2023/01/27 12:20:43;;;;;;;3.85;3.03;;;5.20;99.90;;;;;;5042862;28;20079;-38
2023/01/27 12:23:21;;;;;;;3.60;2.80;;;5.20;99.90;;;;;;5047762;28;20040;-38
2023/01/27 12:25:54;;;;;;;4.80;3.13;;;5.20;99.90;;;;;;5045281;28;20024;-38
2023/01/27 12:28:35;;;;;;;4.80;3.83;;;5.10;99.90;;;;;;5046349;28;20079;-38
2023/01/27 12:31:36;;;;;;;3.40;3.10;;;5.10;99.90;;;;;;5046632;28;20032;-38
2023/01/27 12:34:16;;;;;;;4.53;3.95;;;5.10;99.90;;;;;;5035143;28;20048;-38
2023/01/27 12:36:43;;;;;;;3.63;3.33;;;5.10;99.90;;;;;;5053587;28;20485;-38
2023/01/27 12:39:36;;;;;;;4.60;3.50;;;5.10;99.90;;;;;;5073703;28;20040;-38
2023/01/27 12:42:01;;;;;;;2.78;2.33;;;5.10;99.90;;;;;;5072624;28;20504;-38
2023/01/27 12:44:39;;;;;;;2.33;2.13;;;5.00;99.90;;;;;;5055836;28;20036;-38
2023/01/27 12:47:35;;;;;;;2.83;2.58;;;5.00;99.90;;;;;;5047480;28;20044;-38
2023/01/27 12:50:23;;;;;;;3.05;2.30;;;5.00;99.90;;;;;;5044368;28;20048;-37
2023/01/27 12:53:12;;;;;;;2.83;2.60;;;5.00;99.90;;;;;;5035469;28;20428;-37
2023/01/27 12:56:15;;;;;;;3.40;2.88;;;5.00;99.90;;;;;;5052136;28;20048;-38
2023/01/27 12:58:52;;;;;;;3.55;3.10;;;5.00;99.90;;;;;;5047139;28;20052;-37
2023/01/27 13:01:27;;;;;;;4.53;3.58;;;5.00;99.90;;;;;;5053439;28;20041;-37
2023/01/27 13:04:18;;;;;;;4.65;4.00;;;5.00;99.90;;;;;;5035534;28;20496;-37
2023/01/27 13:06:55;;;;;;;3.13;2.83;;;4.90;99.90;;;;;;5044766;28;20033;-38
2023/01/27 13:09:38;;;;;;;3.08;2.55;;;4.90;99.90;;;;;;5055488;28;20095;-38
2023/01/27 13:12:19;;;;;;;3.25;2.63;;;4.90;99.90;;;;;;5043055;28;20037;-38
2023/01/27 13:14:49;;;;;;;2.78;2.58;;;4.90;99.90;;;;;;5042331;28;20037;-38
2023/01/27 13:17:29;;;;;;;3.90;3.10;;;4.90;99.90;;;;;;5038173;28;20056;-38
2023/01/27 13:20:01;;;;;;;2.90;2.60;;;4.90;99.90;;;;;;5040311;28;20111;-38
2023/01/27 13:22:35;;;;;;;2.72;2.53;;;4.90;99.90;;;;;;5052237;28;20041;-38
2023/01/27 13:25:02;;;;;;;2.40;2.20;;;4.80;99.90;;;;;;5041198;28;20080;-37
2023/01/27 13:27:36;;;;;;;2.90;2.70;;;4.80;99.90;;;;;;5037930;28;20057;-37
2023/01/27 13:30:18;;;;;;;3.33;3.03;;;4.80;99.90;;;;;;5038398;28;20383;-37
2023/01/27 13:32:48;;;;;;;2.58;2.38;;;4.80;99.90;;;;;;5042080;28;20051;-37
2023/01/27 13:35:23;;;;;;;2.25;2.03;;;4.80;99.90;;;;;;5046255;28;20072;-36
2023/01/27 13:38:14;;;;;;;2.75;2.55;;;4.80;99.90;;;;;;5058599;28;20036;-38
2023/01/27 13:40:45;;;;;;;2.42;2.15;;;4.70;99.90;;;;;;5078641;28;20032;-36
2023/01/27 13:43:32;;;;;;;2.22;2.03;;;4.70;99.90;;;;;;5039922;28;20099;-37
2023/01/27 13:46:27;;;;;;;2.90;2.60;;;4.70;99.90;;;;;;5035398;28;20041;-36
2023/01/27 13:48:56;;;;;;;2.50;2.30;;;4.70;99.90;;;;;;5037147;28;20045;-38
2023/01/27 13:51:27;;;;;;;3.20;2.70;;;4.70;99.90;;;;;;5055546;28;20171;-38
2023/01/27 13:54:03;;;;;;;2.50;2.30;;;4.70;99.90;;;;;;5036840;28;20050;-37
2023/01/27 13:56:38;;;;;;;3.45;2.50;;;4.70;99.90;;;;;;5043597;28;20507;-37
2023/01/27 13:59:36;;;;;;;4.18;3.25;;;4.70;99.90;;;;;;5049317;28;20047;-38